메인 페이지
METAR-TAF:

METAR-TAF

공항 :

추크 국제공항

Weno, 미크로네시아

위도: 07-28N, 경도: 151-51E, 고도: 3m

현재 날씨관측

예보는 39분 전, 04:50시(UTC)에 발표되었습니다.
북동9kt
온도 31°C
습도 84%
기압 1007 hPa
시정: 24.1km
고도 1400ft 상공 구름 조금
고도 29000ft 상공 구름 많음

METAR: PTKK 250450Z 04009KT 15SM FEW014 BKN290 31/28 A2973 RMK SLP071 T03130282

시각: 15:29 (05:29 UTC)

예보

예보는 45분 전, 04:44시(UTC)에 발표되었습니다.
예보 대상 시간: 25일 05시부터 25일 24시까지 (UTC)
북동8kt
시정: 10km
고도 1400ft 상공 구름 보통
고도 13000ft 상공 구름 보통
시계 내 소나기,

TAF: PTKK 250444Z 2505/2524 05008KT P6SM VCSH SCT014 SCT130

4,000개 이상의 공항 관측 자료 및 예보 (METAR 및 TAF 보고).

지도상에서 검색 가능한 기상관측소가 노란 점과 빨간 점으로 표시되어 있습니다.

기상관측소 명을 보려면 표시 위로 마우스를 이동하세요.

날씨 관측과 예보를 보려면 클릭하세요.

지도 변경 : 확대하려면 엑스 표시가 있는 녹색 버튼, 축소하려면 빼기 표시가 있는 녹색 버튼, 다음 페이지의 지도를 보려면 녹색 화살표를 클릭하세요.


METAR-TAF: